Главная страница
METAR-TAF:

METAR-TAF

Аэропорты :

Мераге, Иран

широта: 37-20-55N, долгота: 046-07-35E, высота над уровнем моря: 1340 м

Текущие метеонаблюдения

Эта сводка был подготовлена 1 час и 40 минут назад, в 00:00 UTC
Ветер 10 Узел от восточно-юго-восточный
Температура 6°C
Влажность 93%
Давление 1009 hPa
Видимость: 7000 м
Отдельные облака на высоте 3500 фута
Сплошная облачность на высоте 8000 фута
небольшой дождь

METAR: OITM 100000Z 11010KT 7000 -RA SCT035 OVC080 06/05 Q1009

Время: 06:10 (01:40 UTC)


TAF: отсутствует

Метеонаблюдения и прогнозы для более 4000 аэропортов (сводки METAR и TAF).

Имеющиеся станции представлены на карте желтыми и красными точками.

Чтобы увидеть название станции, наведите на нее мышь.

Затем щелкните, чтобы увидеть метеонаблюдения и метеопрогнозы.

Управление картой: чтобы увеличить масштаб, щелкните зеленые кнопки с черным крестиком; чтобы уменьшить масштаб, щелкните зеленую кнопку с тире; для просмотра соседних карт щелкайте зеленые стрелки.


METAR-TAF: